Time;durP1;ratioP1;P1;durP2;ratioP2;P2;SDS_P1;SDS_P2;PMS_P1;PMS_P2;Temp;Humidity;BMP_temperature;BMP_pressure;BME280_temperature;BME280_humidity;BME280_pressure;Samples;Min_cycle;Max_cycle;Signal;HPM_P1;HPM_P2
2022/04/16 00:00:55;;;;;;;5.90;3.97;;;;;;;;;;5119738;27;20239;-16
2022/04/16 00:03:23;;;;;;;4.43;3.65;;;;;;;;;;5120868;27;20239;-16
2022/04/16 00:05:53;;;;;;;5.13;3.38;;;;;;;;;;5122795;27;20228;-15
2022/04/16 00:08:20;;;;;;;6.95;3.72;;;;;;;;;;5114798;27;20234;-16
2022/04/16 00:10:47;;;;;;;4.72;4.00;;;;;;;;;;5112377;27;20227;-16
2022/04/16 00:13:16;;;;;;;6.93;4.03;;;;;;;;;;5120598;27;20587;-17
2022/04/16 00:15:44;;;;;;;6.82;3.17;;;;;;;;;;5124554;27;20228;-16
2022/04/16 00:18:11;;;;;;;5.97;3.67;;;;;;;;;;5119443;27;20733;-17
2022/04/16 00:20:44;;;;;;;7.55;4.00;;;;;;;;;;5123583;27;20657;-16
2022/04/16 00:23:13;;;;;;;6.40;3.83;;;;;;;;;;5121053;27;20232;-17
2022/04/16 00:25:41;;;;;;;8.10;3.55;;;;;;;;;;5123811;27;20580;-16
2022/04/16 00:28:09;;;;;;;6.40;4.00;;;;;;;;;;5118538;27;20848;-16
2022/04/16 00:30:39;;;;;;;7.30;4.22;;;;;;;;;;5116671;27;20267;-16
2022/04/16 00:33:07;;;;;;;5.13;3.30;;;;;;;;;;5121467;27;21038;-17
2022/04/16 00:35:34;;;;;;;5.97;3.35;;;;;;;;;;5122580;27;20235;-16
2022/04/16 00:38:02;;;;;;;6.30;3.22;;;;;;;;;;5120652;27;20232;-16
2022/04/16 00:40:30;;;;;;;4.72;3.65;;;;;;;;;;5121656;27;20243;-16
2022/04/16 00:42:58;;;;;;;5.57;3.85;;;;;;;;;;5121415;27;20251;-16
2022/04/16 00:45:26;;;;;;;4.45;3.50;;;;;;;;;;5120340;27;20319;-16
2022/04/16 00:47:53;;;;;;;4.63;3.80;;;;;;;;;;5123409;27;20227;-16
2022/04/16 00:50:21;;;;;;;4.55;3.75;;;;;;;;;;5118941;27;20228;-16
2022/04/16 00:52:48;;;;;;;4.75;3.63;;;;;;;;;;5116910;27;20224;-15
2022/04/16 00:55:15;;;;;;;6.05;3.80;;;;;;;;;;5119427;27;20958;-16
2022/04/16 00:57:44;;;;;;;5.53;3.92;;;;;;;;;;5120826;27;20232;-16
2022/04/16 01:00:12;;;;;;;4.55;3.90;;;;;;;;;;5117892;27;20240;-16
2022/04/16 01:02:40;;;;;;;4.35;3.40;;;;;;;;;;5121953;27;20244;-16
2022/04/16 01:05:07;;;;;;;3.60;3.30;;;;;;;;;;5122176;27;20239;-16
2022/04/16 01:07:35;;;;;;;4.47;4.07;;;;;;;;;;5124821;27;20226;-16
2022/04/16 01:10:02;;;;;;;7.05;3.83;;;;;;;;;;5118282;27;20234;-16
2022/04/16 01:12:30;;;;;;;5.97;3.65;;;;;;;;;;5120947;27;20234;-16
2022/04/16 01:14:59;;;;;;;3.70;3.30;;;;;;;;;;5119366;27;20227;-16
2022/04/16 01:17:26;;;;;;;6.07;3.50;;;;;;;;;;5121369;27;20258;-16
2022/04/16 01:19:53;;;;;;;4.07;3.65;;;;;;;;;;5122530;27;20227;-16
2022/04/16 01:22:25;;;;;;;4.47;3.70;;;;;;;;;;5117265;27;20985;-16
2022/04/16 01:24:53;;;;;;;5.20;3.47;;;;;;;;;;5112205;27;21036;-16
2022/04/16 01:27:20;;;;;;;5.47;3.97;;;;;;;;;;5116677;27;20241;-16
2022/04/16 01:29:48;;;;;;;4.50;4.10;;;;;;;;;;5112676;27;20695;-16
2022/04/16 01:32:15;;;;;;;4.45;3.80;;;;;;;;;;5114375;27;20230;-17
2022/04/16 01:34:42;;;;;;;4.07;3.67;;;;;;;;;;5121074;27;20235;-16
2022/04/16 01:37:09;;;;;;;5.28;4.10;;;;;;;;;;5118318;27;20231;-16
2022/04/16 01:39:38;;;;;;;4.20;3.80;;;;;;;;;;5104559;27;20611;-15
2022/04/16 01:42:06;;;;;;;4.18;3.53;;;;;;;;;;5119323;27;20238;-16
2022/04/16 01:44:33;;;;;;;7.57;4.38;;;;;;;;;;5119360;27;21072;-17
2022/04/16 01:47:00;;;;;;;5.55;4.97;;;;;;;;;;5121677;27;20234;-17
2022/04/16 01:49:28;;;;;;;6.75;4.60;;;;;;;;;;5121866;27;20231;-16
2022/04/16 01:51:57;;;;;;;4.10;3.67;;;;;;;;;;5121328;27;20314;-16
2022/04/16 01:54:24;;;;;;;4.60;4.00;;;;;;;;;;5115180;27;20224;-16
2022/04/16 01:56:53;;;;;;;4.97;4.10;;;;;;;;;;5120587;27;20243;-16
2022/04/16 01:59:20;;;;;;;8.35;4.50;;;;;;;;;;5125407;27;20234;-16
2022/04/16 02:01:48;;;;;;;5.28;4.30;;;;;;;;;;5117707;27;20250;-16
2022/04/16 02:04:15;;;;;;;4.97;4.05;;;;;;;;;;5122574;27;20239;-16
2022/04/16 02:06:43;;;;;;;5.03;4.05;;;;;;;;;;5122044;27;20698;-16
2022/04/16 02:09:10;;;;;;;5.70;4.10;;;;;;;;;;5125588;27;20254;-16
2022/04/16 02:11:37;;;;;;;4.60;4.20;;;;;;;;;;5128666;27;20234;-16
2022/04/16 02:14:06;;;;;;;4.43;4.03;;;;;;;;;;5123118;27;20220;-16
2022/04/16 02:16:33;;;;;;;5.03;4.10;;;;;;;;;;5125145;27;20243;-16
2022/04/16 02:19:01;;;;;;;5.28;4.03;;;;;;;;;;5127124;27;20231;-16
2022/04/16 02:21:30;;;;;;;4.60;4.18;;;;;;;;;;5124975;27;20236;-16
2022/04/16 02:23:58;;;;;;;6.80;4.47;;;;;;;;;;5120440;27;20243;-16
2022/04/16 02:26:26;;;;;;;4.45;4.00;;;;;;;;;;5124415;27;20228;-16
2022/04/16 02:28:53;;;;;;;4.50;4.10;;;;;;;;;;5120344;27;20223;-16
2022/04/16 02:31:23;;;;;;;4.32;3.92;;;;;;;;;;5118618;27;20325;-16
2022/04/16 02:33:51;;;;;;;5.20;4.53;;;;;;;;;;5126839;27;20338;-16
2022/04/16 02:36:19;;;;;;;4.47;4.07;;;;;;;;;;5117509;27;20232;-16
2022/04/16 02:38:47;;;;;;;5.05;4.22;;;;;;;;;;5127365;27;20227;-15
2022/04/16 02:41:14;;;;;;;5.82;4.50;;;;;;;;;;5123749;27;20988;-16
2022/04/16 02:43:42;;;;;;;4.75;4.28;;;;;;;;;;5123712;27;20239;-16
2022/04/16 02:48:56;;;;;;;4.70;4.15;;;;;;;;;;5120084;27;20257;-17
2022/04/16 02:51:24;;;;;;;5.07;4.50;;;;;;;;;;5117292;27;20229;-16
2022/04/16 02:53:51;;;;;;;5.40;4.40;;;;;;;;;;5123974;27;20231;-16
2022/04/16 02:56:18;;;;;;;5.40;4.40;;;;;;;;;;5119946;27;20208;-16
2022/04/16 02:58:46;;;;;;;5.53;4.60;;;;;;;;;;5125038;27;20234;-16
2022/04/16 03:01:14;;;;;;;5.40;4.25;;;;;;;;;;5121934;27;20240;-16
2022/04/16 03:03:41;;;;;;;5.13;4.53;;;;;;;;;;5125027;27;20232;-16
2022/04/16 03:06:10;;;;;;;5.10;4.60;;;;;;;;;;5124249;27;20224;-17
2022/04/16 03:08:37;;;;;;;4.55;4.15;;;;;;;;;;5124073;27;20232;-16
2022/04/16 03:11:05;;;;;;;5.28;4.15;;;;;;;;;;5123904;27;20223;-16
2022/04/16 03:13:34;;;;;;;5.68;4.63;;;;;;;;;;5121691;27;20240;-16
2022/04/16 03:18:46;;;;;;;4.97;4.45;;;;;;;;;;5118928;27;20249;-16
2022/04/16 03:21:16;;;;;;;5.72;4.35;;;;;;;;;;5122376;27;20235;-16
2022/04/16 03:23:43;;;;;;;4.88;4.25;;;;;;;;;;5124733;27;20232;-16
2022/04/16 03:26:10;;;;;;;7.70;4.68;;;;;;;;;;5123200;27;21029;-16
2022/04/16 03:28:38;;;;;;;6.65;4.72;;;;;;;;;;5124323;27;20228;-16
2022/04/16 03:31:06;;;;;;;5.25;3.95;;;;;;;;;;5125725;27;20227;-16
2022/04/16 03:33:33;;;;;;;6.07;4.60;;;;;;;;;;5119924;27;20237;-16
2022/04/16 03:36:00;;;;;;;6.05;4.57;;;;;;;;;;5124017;27;20262;-16
2022/04/16 03:38:29;;;;;;;5.22;4.53;;;;;;;;;;5123210;27;20232;-16
2022/04/16 03:40:57;;;;;;;5.35;4.85;;;;;;;;;;5125648;27;20216;-16
2022/04/16 03:43:26;;;;;;;4.85;4.30;;;;;;;;;;5122574;27;20236;-15
2022/04/16 03:45:54;;;;;;;6.35;4.88;;;;;;;;;;5124494;27;20227;-16
2022/04/16 03:48:21;;;;;;;5.05;4.55;;;;;;;;;;5121745;27;20224;-16
2022/04/16 03:50:48;;;;;;;5.32;4.20;;;;;;;;;;5118577;27;20232;-16
2022/04/16 03:53:16;;;;;;;4.80;4.28;;;;;;;;;;5122595;27;21032;-17
2022/04/16 04:01:15;;;;;;;4.63;4.18;;;;;;;;;;5120897;27;20717;-15
2022/04/16 04:03:42;;;;;;;5.30;4.70;;;;;;;;;;5123369;27;20277;-15
2022/04/16 04:06:10;;;;;;;5.18;4.68;;;;;;;;;;5123162;27;20230;-16
2022/04/16 04:08:37;;;;;;;4.65;4.18;;;;;;;;;;5121257;27;20233;-16
2022/04/16 04:11:06;;;;;;;6.00;4.85;;;;;;;;;;5119479;27;20239;-16
2022/04/16 04:13:34;;;;;;;6.07;4.88;;;;;;;;;;5116586;27;20237;-16
2022/04/16 04:16:01;;;;;;;6.13;4.47;;;;;;;;;;5116973;27;20312;-16
2022/04/16 04:18:28;;;;;;;5.63;4.45;;;;;;;;;;5122623;27;20300;-16
2022/04/16 04:20:56;;;;;;;6.05;4.88;;;;;;;;;;5124885;27;20234;-17
2022/04/16 04:23:24;;;;;;;5.75;5.05;;;;;;;;;;5118686;27;20238;-16
2022/04/16 04:25:51;;;;;;;4.85;4.35;;;;;;;;;;5124578;27;20341;-16
2022/04/16 04:28:20;;;;;;;5.20;4.70;;;;;;;;;;5118072;27;20228;-17
2022/04/16 04:30:47;;;;;;;5.43;4.72;;;;;;;;;;5118644;27;20732;-16
2022/04/16 04:33:15;;;;;;;6.35;4.95;;;;;;;;;;5121371;27;20322;-16
2022/04/16 04:35:42;;;;;;;6.80;4.97;;;;;;;;;;5124782;27;20682;-16
2022/04/16 04:38:09;;;;;;;6.65;5.35;;;;;;;;;;5116861;27;20232;-16
2022/04/16 04:40:37;;;;;;;5.50;5.00;;;;;;;;;;5122690;27;20232;-16
2022/04/16 04:43:04;;;;;;;6.38;5.70;;;;;;;;;;5122667;27;20988;-16
2022/04/16 04:45:33;;;;;;;6.50;5.53;;;;;;;;;;5120845;27;20235;-17
2022/04/16 04:48:00;;;;;;;7.50;5.57;;;;;;;;;;5120826;27;21092;-16
2022/04/16 04:50:28;;;;;;;6.57;5.43;;;;;;;;;;5119053;27;20260;-17
2022/04/16 04:52:55;;;;;;;5.05;4.55;;;;;;;;;;5121819;27;20228;-16
2022/04/16 04:55:22;;;;;;;4.95;4.10;;;;;;;;;;5119872;27;20224;-16
2022/04/16 04:57:54;;;;;;;4.65;4.05;;;;;;;;;;5123177;27;20239;-17
2022/04/16 05:00:21;;;;;;;4.40;3.88;;;;;;;;;;5116933;27;20551;-16
2022/04/16 05:02:50;;;;;;;3.97;3.58;;;;;;;;;;5117044;27;20240;-16
2022/04/16 05:05:17;;;;;;;4.18;3.40;;;;;;;;;;5117521;27;21306;-17
2022/04/16 05:07:45;;;;;;;3.67;3.28;;;;;;;;;;5125105;27;20235;-17
2022/04/16 05:10:12;;;;;;;3.85;3.35;;;;;;;;;;5118604;27;21077;-16
2022/04/16 05:12:39;;;;;;;3.83;3.03;;;;;;;;;;5120441;27;20223;-16
2022/04/16 05:15:07;;;;;;;4.10;3.55;;;;;;;;;;5104879;27;20228;-15
2022/04/16 05:17:37;;;;;;;4.70;3.60;;;;;;;;;;5104614;27;20717;-16
2022/04/16 05:20:08;;;;;;;3.83;3.35;;;;;;;;;;5108497;27;20233;-16
2022/04/16 05:22:35;;;;;;;4.72;3.63;;;;;;;;;;5106041;27;20227;-16
2022/04/16 05:25:03;;;;;;;3.80;3.22;;;;;;;;;;5108121;27;20240;-16
2022/04/16 05:27:30;;;;;;;3.30;3.00;;;;;;;;;;5108604;27;20231;-17
2022/04/16 05:30:06;;;;;;;3.60;3.30;;;;;;;;;;5107012;27;20723;-16
2022/04/16 05:32:36;;;;;;;6.03;3.30;;;;;;;;;;5104721;27;20236;-16
2022/04/16 05:35:04;;;;;;;3.92;3.15;;;;;;;;;;5101359;27;20236;-15
2022/04/16 05:37:33;;;;;;;3.22;2.95;;;;;;;;;;5125964;27;20231;-16
2022/04/16 05:40:00;;;;;;;3.47;3.17;;;;;;;;;;5124194;27;20231;-16
2022/04/16 05:42:27;;;;;;;3.65;3.03;;;;;;;;;;5123790;27;20225;-16
2022/04/16 05:44:59;;;;;;;3.83;3.20;;;;;;;;;;5123478;27;20271;-16
2022/04/16 05:47:26;;;;;;;3.80;3.03;;;;;;;;;;5123643;27;20231;-16
2022/04/16 05:49:54;;;;;;;3.78;3.38;;;;;;;;;;5122483;27;20233;-16
2022/04/16 05:52:22;;;;;;;3.30;3.00;;;;;;;;;;5123518;27;20266;-16
2022/04/16 05:54:51;;;;;;;3.58;3.25;;;;;;;;;;5114389;27;20224;-16
2022/04/16 05:57:18;;;;;;;3.42;3.13;;;;;;;;;;5118962;27;20234;-17
2022/04/16 05:59:45;;;;;;;3.78;3.42;;;;;;;;;;5126750;27;20227;-16
2022/04/16 06:02:13;;;;;;;5.50;3.30;;;;;;;;;;5123068;27;20312;-16
2022/04/16 06:04:40;;;;;;;3.38;3.08;;;;;;;;;;5123562;27;20241;-16
2022/04/16 06:07:07;;;;;;;3.45;3.15;;;;;;;;;;5124786;27;20223;-17
2022/04/16 06:09:35;;;;;;;3.33;2.90;;;;;;;;;;5114965;27;20228;-16
2022/04/16 06:12:09;;;;;;;7.43;3.53;;;;;;;;;;5125056;27;20232;-16
2022/04/16 06:14:36;;;;;;;8.60;3.30;;;;;;;;;;5123358;27;20228;-16
2022/04/16 06:17:04;;;;;;;7.30;3.30;;;;;;;;;;5117433;27;20670;-16
2022/04/16 06:19:31;;;;;;;8.05;3.60;;;;;;;;;;5121266;27;20271;-16
2022/04/16 06:21:58;;;;;;;4.75;3.50;;;;;;;;;;5125478;27;20229;-16
2022/04/16 06:24:26;;;;;;;5.35;3.50;;;;;;;;;;5127173;27;20239;-16
2022/04/16 06:26:53;;;;;;;5.07;3.60;;;;;;;;;;5124201;27;20231;-15
2022/04/16 06:29:22;;;;;;;5.55;3.60;;;;;;;;;;5121858;27;20228;-16
2022/04/16 06:31:49;;;;;;;5.45;3.40;;;;;;;;;;5105721;27;21117;-16
2022/04/16 06:34:16;;;;;;;9.32;3.58;;;;;;;;;;5103055;27;20318;-16
2022/04/16 06:36:44;;;;;;;8.57;4.30;;;;;;;;;;5106450;27;20231;-17
2022/04/16 06:39:11;;;;;;;5.68;3.63;;;;;;;;;;5111096;27;20976;-16
2022/04/16 06:41:38;;;;;;;5.65;3.53;;;;;;;;;;5112900;27;20228;-16
2022/04/16 06:44:06;;;;;;;3.92;3.53;;;;;;;;;;5114425;27;21123;-16
2022/04/16 06:46:35;;;;;;;4.70;3.63;;;;;;;;;;5111033;27;20323;-17
2022/04/16 06:49:02;;;;;;;5.97;3.95;;;;;;;;;;5115091;27;20239;-15
2022/04/16 06:51:30;;;;;;;5.07;3.25;;;;;;;;;;5104886;27;20432;-15
2022/04/16 06:53:58;;;;;;;3.97;3.58;;;;;;;;;;5105409;27;20265;-16
2022/04/16 06:56:25;;;;;;;8.88;3.45;;;;;;;;;;5103379;27;20231;-16
2022/04/16 06:58:52;;;;;;;5.28;3.50;;;;;;;;;;5104747;27;20287;-17
2022/04/16 07:01:20;;;;;;;4.85;3.13;;;;;;;;;;5109902;27;20246;-16
2022/04/16 07:03:49;;;;;;;3.50;3.20;;;;;;;;;;5106730;27;20244;-16
2022/04/16 07:06:16;;;;;;;3.97;3.58;;;;;;;;;;5113039;27;20235;-16
2022/04/16 07:08:43;;;;;;;3.53;3.13;;;;;;;;;;5112584;27;21035;-17
2022/04/16 07:11:11;;;;;;;5.55;3.42;;;;;;;;;;5113755;27;20239;-16
2022/04/16 07:13:38;;;;;;;3.53;3.20;;;;;;;;;;5109115;27;20232;-16
2022/04/16 07:16:05;;;;;;;5.40;3.63;;;;;;;;;;5110784;27;20228;-16
2022/04/16 07:18:33;;;;;;;9.48;5.05;;;;;;;;;;5112951;27;20228;-15
2022/04/16 07:21:01;;;;;;;9.00;4.50;;;;;;;;;;5116718;27;20343;-16
2022/04/16 07:23:29;;;;;;;7.43;4.78;;;;;;;;;;5113199;27;20240;-17
2022/04/16 07:25:57;;;;;;;8.23;4.72;;;;;;;;;;5114059;27;20234;-16
2022/04/16 07:28:24;;;;;;;8.07;5.30;;;;;;;;;;5111294;27;20306;-16
2022/04/16 07:30:51;;;;;;;6.45;4.53;;;;;;;;;;5112874;27;20231;-17
2022/04/16 07:33:19;;;;;;;7.43;4.30;;;;;;;;;;5107211;27;20970;-16
2022/04/16 07:35:46;;;;;;;8.50;4.82;;;;;;;;;;5113867;27;20220;-16
2022/04/16 07:38:15;;;;;;;7.75;5.47;;;;;;;;;;5105763;27;20590;-16
2022/04/16 07:40:42;;;;;;;10.35;6.85;;;;;;;;;;5108957;27;20223;-16
2022/04/16 07:43:09;;;;;;;10.43;7.70;;;;;;;;;;5099600;27;20742;-16
2022/04/16 07:45:37;;;;;;;19.08;7.18;;;;;;;;;;5104780;27;20232;-15
2022/04/16 07:48:09;;;;;;;18.02;6.70;;;;;;;;;;5110022;27;20274;-16
2022/04/16 07:50:37;;;;;;;24.25;6.60;;;;;;;;;;5109553;27;20235;-16
2022/04/16 07:53:06;;;;;;;19.02;6.78;;;;;;;;;;5121186;27;20236;-16
2022/04/16 07:55:35;;;;;;;15.40;7.30;;;;;;;;;;5120307;27;20232;-16
2022/04/16 07:58:03;;;;;;;10.30;6.95;;;;;;;;;;5123490;27;20228;-16
2022/04/16 08:00:30;;;;;;;11.15;7.70;;;;;;;;;;5118378;27;20726;-16
2022/04/16 08:02:57;;;;;;;13.88;7.07;;;;;;;;;;5105157;27;20723;-16
2022/04/16 08:05:25;;;;;;;16.02;6.75;;;;;;;;;;5107000;27;20235;-15
2022/04/16 08:07:55;;;;;;;13.38;6.55;;;;;;;;;;5110134;27;20441;-16
2022/04/16 08:10:22;;;;;;;13.00;6.45;;;;;;;;;;5124862;27;20235;-15
2022/04/16 08:12:51;;;;;;;10.90;5.50;;;;;;;;;;5121434;27;20235;-16
2022/04/16 08:15:18;;;;;;;10.95;5.38;;;;;;;;;;5110524;27;20224;-16
2022/04/16 08:17:45;;;;;;;7.47;5.10;;;;;;;;;;5119997;27;20484;-16
2022/04/16 08:20:13;;;;;;;9.35;5.47;;;;;;;;;;5124330;27;20233;-16
2022/04/16 08:22:46;;;;;;;11.07;4.65;;;;;;;;;;5122082;27;20716;-16
2022/04/16 08:28:05;;;;;;;12.30;5.50;;;;;;;;;;5109378;27;20423;-16
2022/04/16 08:30:32;;;;;;;13.77;5.55;;;;;;;;;;5120503;27;20232;-15
2022/04/16 08:33:00;;;;;;;8.75;4.97;;;;;;;;;;5121016;27;20228;-16
2022/04/16 08:35:27;;;;;;;8.50;5.03;;;;;;;;;;5114690;27;21008;-15
2022/04/16 08:37:54;;;;;;;10.65;5.72;;;;;;;;;;5120835;27;20247;-15
2022/04/16 08:40:21;;;;;;;17.40;6.15;;;;;;;;;;5115244;27;20227;-16
2022/04/16 08:42:49;;;;;;;14.98;6.45;;;;;;;;;;5122880;27;20408;-16
2022/04/16 08:45:18;;;;;;;9.60;6.43;;;;;;;;;;5117125;27;20235;-16
2022/04/16 08:47:45;;;;;;;12.00;5.95;;;;;;;;;;5120591;27;20243;-16
2022/04/16 08:50:13;;;;;;;10.55;6.30;;;;;;;;;;5121848;27;20232;-16
2022/04/16 08:52:41;;;;;;;17.35;6.28;;;;;;;;;;5121318;27;20231;-16
2022/04/16 08:55:09;;;;;;;9.73;6.28;;;;;;;;;;5122481;27;20265;-16
2022/04/16 08:57:36;;;;;;;8.98;5.40;;;;;;;;;;5116148;27;20242;-15
2022/04/16 09:00:04;;;;;;;19.65;6.07;;;;;;;;;;5122260;27;20232;-15
2022/04/16 09:02:32;;;;;;;7.90;5.20;;;;;;;;;;5120800;27;20244;-15
2022/04/16 09:05:04;;;;;;;10.80;5.15;;;;;;;;;;5118805;27;20241;-16
2022/04/16 09:07:32;;;;;;;9.52;5.38;;;;;;;;;;5113020;27;20228;-16
2022/04/16 09:10:06;;;;;;;7.00;5.10;;;;;;;;;;5116059;27;20253;-16
2022/04/16 09:12:36;;;;;;;11.13;4.80;;;;;;;;;;5115210;27;20729;-16
2022/04/16 09:15:05;;;;;;;9.77;4.90;;;;;;;;;;5108749;27;20730;-16
2022/04/16 09:17:33;;;;;;;9.25;5.22;;;;;;;;;;5107791;27;20232;-16
2022/04/16 09:20:01;;;;;;;7.63;5.28;;;;;;;;;;5115838;27;20311;-16
2022/04/16 09:22:35;;;;;;;8.30;4.97;;;;;;;;;;5115826;27;20714;-16
2022/04/16 09:25:04;;;;;;;8.57;4.38;;;;;;;;;;5118773;27;20243;-15
2022/04/16 09:27:39;;;;;;;6.75;4.22;;;;;;;;;;5121824;27;20917;-16
2022/04/16 09:30:07;;;;;;;5.20;4.28;;;;;;;;;;5121754;27;20234;-16
2022/04/16 09:32:42;;;;;;;8.02;5.07;;;;;;;;;;5107969;27;20727;-16
2022/04/16 09:35:10;;;;;;;5.35;4.03;;;;;;;;;;5109559;27;20684;-16
2022/04/16 09:37:57;;;;;;;6.50;4.25;;;;;;;;;;5104123;27;20235;-16
2022/04/16 09:40:26;;;;;;;6.55;4.25;;;;;;;;;;5104273;27;20228;-16
2022/04/16 09:42:53;;;;;;;5.20;4.00;;;;;;;;;;5099920;27;20232;-15
2022/04/16 09:45:21;;;;;;;6.22;4.45;;;;;;;;;;5108979;27;21080;-15
2022/04/16 09:47:51;;;;;;;8.45;4.32;;;;;;;;;;5115512;27;20234;-16
2022/04/16 09:50:19;;;;;;;4.60;3.65;;;;;;;;;;5116607;27;20230;-16
2022/04/16 09:52:53;;;;;;;5.72;3.55;;;;;;;;;;5115793;27;20234;-15
2022/04/16 09:55:21;;;;;;;10.25;4.60;;;;;;;;;;5115802;27;20219;-16
2022/04/16 09:57:53;;;;;;;5.90;3.45;;;;;;;;;;5103423;27;20235;-15
2022/04/16 10:00:21;;;;;;;5.43;3.63;;;;;;;;;;5106255;27;20224;-16
2022/04/16 10:02:50;;;;;;;6.65;3.70;;;;;;;;;;5115418;27;20335;-16
2022/04/16 10:05:17;;;;;;;8.60;3.50;;;;;;;;;;5115699;27;20630;-15
2022/04/16 10:07:46;;;;;;;8.75;3.80;;;;;;;;;;5118076;27;20759;-16
2022/04/16 10:10:25;;;;;;;9.80;3.58;;;;;;;;;;5122458;27;20235;-15
2022/04/16 10:13:03;;;;;;;6.65;4.00;;;;;;;;;;5115246;27;20224;-15
2022/04/16 10:15:42;;;;;;;6.38;3.50;;;;;;;;;;5120352;27;20228;-15
2022/04/16 10:18:12;;;;;;;4.80;3.22;;;;;;;;;;5117779;27;20332;-16
2022/04/16 10:20:50;;;;;;;5.28;3.45;;;;;;;;;;5121643;27;20934;-15
2022/04/16 10:23:25;;;;;;;4.72;3.13;;;;;;;;;;5118218;27;20227;-16
2022/04/16 10:25:52;;;;;;;6.90;3.10;;;;;;;;;;5119400;27;20709;-15
2022/04/16 10:28:20;;;;;;;7.55;2.90;;;;;;;;;;5123624;27;20242;-15
2022/04/16 10:30:50;;;;;;;5.20;2.92;;;;;;;;;;5120017;27;20223;-16
2022/04/16 10:33:19;;;;;;;7.85;3.03;;;;;;;;;;5118578;27;20232;-15
2022/04/16 10:35:50;;;;;;;6.38;2.80;;;;;;;;;;5126589;27;20629;-16
2022/04/16 10:38:24;;;;;;;3.70;2.50;;;;;;;;;;5118168;27;20236;-16
2022/04/16 10:40:55;;;;;;;5.20;2.60;;;;;;;;;;5116110;27;20988;-14
2022/04/16 10:43:24;;;;;;;5.43;2.70;;;;;;;;;;5124919;27;20230;-16
2022/04/16 10:45:56;;;;;;;8.60;2.83;;;;;;;;;;5108333;27;20267;-16
2022/04/16 10:48:24;;;;;;;7.68;3.08;;;;;;;;;;5115337;27;20660;-15
2022/04/16 10:50:52;;;;;;;5.75;2.95;;;;;;;;;;5122677;27;20223;-16
2022/04/16 10:53:28;;;;;;;5.28;3.05;;;;;;;;;;5123146;27;20226;-16
2022/04/16 10:55:55;;;;;;;4.72;3.20;;;;;;;;;;5125603;27;20223;-16
2022/04/16 10:58:30;;;;;;;10.45;3.67;;;;;;;;;;5122843;27;20225;-15
2022/04/16 11:01:07;;;;;;;6.90;3.85;;;;;;;;;;5122537;27;20254;-15
2022/04/16 11:03:42;;;;;;;9.35;3.63;;;;;;;;;;5124312;27;20315;-15
2022/04/16 11:06:09;;;;;;;5.82;2.95;;;;;;;;;;5113398;27;20801;-16
2022/04/16 11:08:37;;;;;;;6.72;3.00;;;;;;;;;;5115424;27;20224;-16
2022/04/16 11:11:06;;;;;;;6.32;3.47;;;;;;;;;;5114925;27;20243;-15
2022/04/16 11:13:34;;;;;;;5.93;2.75;;;;;;;;;;5118051;27;20228;-15
2022/04/16 11:16:01;;;;;;;4.95;2.58;;;;;;;;;;5119484;27;20324;-16
2022/04/16 11:18:38;;;;;;;7.90;2.90;;;;;;;;;;5103895;27;20267;-15
2022/04/16 11:21:09;;;;;;;3.72;2.53;;;;;;;;;;5116449;27;20239;-15
2022/04/16 11:23:40;;;;;;;9.55;2.88;;;;;;;;;;5120410;27;20241;-15
2022/04/16 11:34:26;;;;;;;3.60;2.33;;;;;;;;;;5116428;27;20228;-14
2022/04/16 11:37:14;;;;;;;5.80;2.13;;;;;;;;;;5121429;27;20233;-15
2022/04/16 11:39:41;;;;;;;6.53;2.83;;;;;;;;;;5102136;27;20235;-16
2022/04/16 11:42:09;;;;;;;17.23;2.88;;;;;;;;;;5101882;27;20703;-15
2022/04/16 11:44:40;;;;;;;9.68;2.60;;;;;;;;;;5113400;27;20232;-15
2022/04/16 11:47:08;;;;;;;4.43;2.90;;;;;;;;;;5119086;27;20243;-15
2022/04/16 11:49:37;;;;;;;4.75;3.00;;;;;;;;;;5124121;27;20223;-15
2022/04/16 11:52:05;;;;;;;4.57;3.17;;;;;;;;;;5120557;27;20224;-15
2022/04/16 11:54:32;;;;;;;6.55;3.20;;;;;;;;;;5122704;27;20242;-15
2022/04/16 11:57:00;;;;;;;7.88;3.05;;;;;;;;;;5122798;27;20223;-15
2022/04/16 11:59:27;;;;;;;5.00;2.90;;;;;;;;;;5120420;27;20696;-15
2022/04/16 12:01:58;;;;;;;4.75;3.15;;;;;;;;;;5122917;27;21071;-15
2022/04/16 12:04:42;;;;;;;5.53;2.90;;;;;;;;;;5122432;27;20674;-15
2022/04/16 12:07:13;;;;;;;4.03;2.85;;;;;;;;;;5121412;27;20240;-15
2022/04/16 12:09:46;;;;;;;3.78;2.63;;;;;;;;;;5120536;27;20777;-15
2022/04/16 12:12:15;;;;;;;8.77;2.80;;;;;;;;;;5120864;27;20232;-15
2022/04/16 12:14:46;;;;;;;5.32;3.00;;;;;;;;;;5121517;27;20238;-15
2022/04/16 12:17:21;;;;;;;2.97;2.00;;;;;;;;;;5115269;27;20231;-15
2022/04/16 12:20:00;;;;;;;3.63;1.85;;;;;;;;;;5115908;27;20674;-15
2022/04/16 12:22:28;;;;;;;4.22;1.70;;;;;;;;;;5113993;27;20303;-15
2022/04/16 12:24:55;;;;;;;6.63;1.75;;;;;;;;;;5124703;27;20237;-15
2022/04/16 12:27:26;;;;;;;3.33;1.80;;;;;;;;;;5120874;27;20349;-16
2022/04/16 12:29:54;;;;;;;8.40;1.52;;;;;;;;;;5123027;27;20323;-15
2022/04/16 12:32:25;;;;;;;4.22;1.70;;;;;;;;;;5121090;27;20709;-15
2022/04/16 12:34:52;;;;;;;2.78;1.30;;;;;;;;;;5117682;27;20736;-14
2022/04/16 12:37:21;;;;;;;4.50;1.85;;;;;;;;;;5124532;27;20227;-15
2022/04/16 12:39:49;;;;;;;3.28;2.00;;;;;;;;;;5112442;27;20235;-15
2022/04/16 12:42:16;;;;;;;3.92;1.83;;;;;;;;;;5118949;27;20262;-15
2022/04/16 12:44:44;;;;;;;2.28;1.63;;;;;;;;;;5122178;27;20231;-16
2022/04/16 12:47:11;;;;;;;2.38;1.40;;;;;;;;;;5121564;27;20231;-15
2022/04/16 12:49:38;;;;;;;2.15;1.65;;;;;;;;;;5123390;27;20236;-14
2022/04/16 12:52:06;;;;;;;2.17;1.40;;;;;;;;;;5118462;27;20698;-15
2022/04/16 12:54:35;;;;;;;2.95;1.10;;;;;;;;;;5122191;27;20702;-15
2022/04/16 12:57:03;;;;;;;3.03;1.38;;;;;;;;;;5122340;27;20231;-15
2022/04/16 12:59:30;;;;;;;3.30;1.60;;;;;;;;;;5121755;27;20228;-15
2022/04/16 13:01:58;;;;;;;3.42;1.42;;;;;;;;;;5119172;27;21140;-15
2022/04/16 13:04:29;;;;;;;3.15;1.50;;;;;;;;;;5118771;27;20220;-16
2022/04/16 13:06:56;;;;;;;3.17;1.38;;;;;;;;;;5117492;27;20725;-15
2022/04/16 13:09:24;;;;;;;2.38;1.40;;;;;;;;;;5123575;27;20240;-14
2022/04/16 13:11:53;;;;;;;6.25;1.90;;;;;;;;;;5124125;27;20235;-15
2022/04/16 13:14:22;;;;;;;3.30;1.20;;;;;;;;;;5116053;27;20232;-15
2022/04/16 13:16:49;;;;;;;5.10;1.55;;;;;;;;;;5121883;27;20223;-16
2022/04/16 13:19:16;;;;;;;3.58;1.10;;;;;;;;;;5116503;27;20258;-16
2022/04/16 13:21:44;;;;;;;2.80;1.30;;;;;;;;;;5119976;27;20240;-15
2022/04/16 13:24:14;;;;;;;5.05;1.50;;;;;;;;;;5121405;27;20347;-16
2022/04/16 13:26:41;;;;;;;2.97;1.38;;;;;;;;;;5121970;27;20246;-16
2022/04/16 13:29:10;;;;;;;5.47;1.20;;;;;;;;;;5121528;27;20611;-15
2022/04/16 13:31:38;;;;;;;1.65;1.23;;;;;;;;;;5120116;27;20259;-16
2022/04/16 13:34:06;;;;;;;4.35;1.33;;;;;;;;;;5121793;27;20729;-16
2022/04/16 13:36:33;;;;;;;10.68;1.70;;;;;;;;;;5120507;27;20227;-16
2022/04/16 13:39:00;;;;;;;5.90;1.58;;;;;;;;;;5121275;27;20228;-15
2022/04/16 13:41:39;;;;;;;6.80;1.30;;;;;;;;;;5122550;27;20227;-16
2022/04/16 13:44:07;;;;;;;2.38;1.20;;;;;;;;;;5122119;27;20228;-15
2022/04/16 13:46:36;;;;;;;2.30;1.08;;;;;;;;;;5118396;27;20236;-15
2022/04/16 13:49:04;;;;;;;4.95;1.48;;;;;;;;;;5121832;27;20242;-16
2022/04/16 13:51:31;;;;;;;6.18;1.48;;;;;;;;;;5113286;27;20239;-14
2022/04/16 13:53:59;;;;;;;3.60;1.30;;;;;;;;;;5122805;27;20223;-15
2022/04/16 13:56:26;;;;;;;5.38;1.30;;;;;;;;;;5122355;27;20228;-15
2022/04/16 13:58:54;;;;;;;2.72;1.30;;;;;;;;;;5125297;27;20227;-15
2022/04/16 14:01:22;;;;;;;6.10;1.20;;;;;;;;;;5123184;27;20242;-15
2022/04/16 14:03:50;;;;;;;5.00;1.27;;;;;;;;;;5115128;27;20250;-15
2022/04/16 14:06:18;;;;;;;3.00;1.50;;;;;;;;;;5119368;27;20224;-16
2022/04/16 14:08:45;;;;;;;2.08;1.10;;;;;;;;;;5125740;27;20974;-16
2022/04/16 14:11:13;;;;;;;3.30;1.10;;;;;;;;;;5113188;27;20227;-16
2022/04/16 14:13:40;;;;;;;3.10;1.23;;;;;;;;;;5117183;27;20225;-15
2022/04/16 14:16:10;;;;;;;1.63;0.90;;;;;;;;;;5116762;27;20232;-15
2022/04/16 14:18:37;;;;;;;5.50;1.17;;;;;;;;;;5118742;27;20313;-16
2022/04/16 14:21:07;;;;;;;2.28;1.05;;;;;;;;;;5115084;27;20262;-15
2022/04/16 14:23:34;;;;;;;1.60;0.95;;;;;;;;;;5117787;27;20963;-16
2022/04/16 14:26:02;;;;;;;4.90;1.30;;;;;;;;;;5119690;27;20678;-16
2022/04/16 14:28:29;;;;;;;3.53;1.20;;;;;;;;;;5124185;27;20244;-15
2022/04/16 14:30:56;;;;;;;1.70;1.10;;;;;;;;;;5119731;27;20232;-15
2022/04/16 14:33:24;;;;;;;2.20;1.02;;;;;;;;;;5122911;27;20277;-14
2022/04/16 14:35:51;;;;;;;4.05;1.20;;;;;;;;;;5126385;27;20235;-15
2022/04/16 14:38:21;;;;;;;3.67;1.42;;;;;;;;;;5118948;27;20236;-16
2022/04/16 14:40:48;;;;;;;2.42;1.10;;;;;;;;;;5118840;27;20236;-15
2022/04/16 14:43:18;;;;;;;2.22;0.90;;;;;;;;;;5123496;27;20224;-15
2022/04/16 14:45:45;;;;;;;2.10;1.13;;;;;;;;;;5126057;27;20613;-16
2022/04/16 14:48:13;;;;;;;2.08;0.90;;;;;;;;;;5125760;27;21151;-16
2022/04/16 14:50:40;;;;;;;1.50;1.00;;;;;;;;;;5120685;27;20231;-14
2022/04/16 14:53:07;;;;;;;2.47;1.10;;;;;;;;;;5113663;27;20412;-14
2022/04/16 14:55:37;;;;;;;8.57;1.08;;;;;;;;;;5116185;27;20327;-15
2022/04/16 14:58:05;;;;;;;2.47;1.00;;;;;;;;;;5124542;27;20761;-16
2022/04/16 15:00:32;;;;;;;2.58;0.93;;;;;;;;;;5122612;27;20232;-16
2022/04/16 15:03:00;;;;;;;2.58;0.90;;;;;;;;;;5122851;27;20241;-15
2022/04/16 15:05:27;;;;;;;1.30;0.90;;;;;;;;;;5122708;27;20967;-15
2022/04/16 15:07:59;;;;;;;1.15;0.98;;;;;;;;;;5123848;27;20239;-15
2022/04/16 15:10:27;;;;;;;1.85;0.88;;;;;;;;;;5122042;27;20723;-15